createdAt,value
2018-08-11T00:00:46.449Z,1015.66
2018-08-11T00:01:46.373Z,1015.69
2018-08-11T00:02:46.336Z,1015.71
2018-08-11T00:03:46.265Z,1015.69
2018-08-11T00:04:46.129Z,1015.71
2018-08-11T00:05:46.052Z,1015.74
2018-08-11T00:06:45.974Z,1015.71
2018-08-11T00:07:45.915Z,1015.68
2018-08-11T00:08:45.817Z,1015.70
2018-08-11T00:09:45.762Z,1015.71
2018-08-11T00:10:45.656Z,1015.70
2018-08-11T00:11:45.591Z,1015.67
2018-08-11T00:12:45.504Z,1015.67
2018-08-11T00:13:45.465Z,1015.64
2018-08-11T00:14:45.336Z,1015.65
2018-08-11T00:17:27.597Z,1015.73
2018-08-11T00:18:27.571Z,1015.68
2018-08-11T00:19:27.428Z,1015.65
2018-08-11T00:20:27.359Z,1015.69
2018-08-11T00:21:27.262Z,1015.64
2018-08-11T00:22:27.195Z,1015.60
2018-08-11T00:23:27.168Z,1015.60
2018-08-11T00:24:27.072Z,1015.68
2018-08-11T00:25:26.958Z,1015.68
2018-08-11T00:26:26.887Z,1015.64
2018-08-11T00:27:26.790Z,1015.70
2018-08-11T00:28:26.748Z,1015.69
2018-08-11T00:29:26.635Z,1015.70
2018-08-11T00:30:26.594Z,1015.69
2018-08-11T00:31:26.488Z,1015.71
2018-08-11T00:32:26.411Z,1015.73
2018-08-11T00:33:26.401Z,1015.76
2018-08-11T00:34:26.258Z,1015.78
2018-08-11T00:35:26.193Z,1015.78
2018-08-11T00:36:26.127Z,1015.79
2018-08-11T00:37:26.010Z,1015.85
2018-08-11T00:38:25.968Z,1015.82
2018-08-11T00:39:25.850Z,1015.79
2018-08-11T00:40:26.886Z,1015.80
2018-08-11T00:41:25.688Z,1015.85
2018-08-11T00:42:25.618Z,1015.84
2018-08-11T00:43:25.530Z,1015.79
2018-08-11T00:44:26.498Z,1015.86
2018-08-11T00:45:25.500Z,1015.92
2018-08-11T00:46:25.307Z,1015.88
2018-08-11T00:47:25.218Z,1015.87
2018-08-11T00:50:07.108Z,1016.06
2018-08-11T00:51:07.063Z,1016.19
2018-08-11T00:52:06.943Z,1016.15
2018-08-11T00:53:06.865Z,1016.18
2018-08-11T00:54:06.785Z,1016.20
2018-08-11T00:55:06.893Z,1016.22
2018-08-11T00:56:06.616Z,1016.24
2018-08-11T00:58:48.609Z,1016.23
2018-08-11T00:59:48.530Z,1016.27
2018-08-11T01:00:48.460Z,1016.33
2018-08-11T01:01:48.364Z,1016.30
2018-08-11T01:02:48.292Z,1016.35
2018-08-11T01:05:30.135Z,1016.58
2018-08-11T01:06:30.039Z,1016.55
2018-08-11T01:07:29.936Z,1016.70
2018-08-11T01:08:29.881Z,1016.63
2018-08-11T01:09:29.790Z,1016.68
2018-08-11T01:10:30.727Z,1016.67
2018-08-11T01:11:29.634Z,1016.66
2018-08-11T01:12:29.546Z,1016.68
2018-08-11T01:13:29.481Z,1016.63
2018-08-11T01:14:29.403Z,1016.62
2018-08-11T01:15:29.380Z,1016.66
2018-08-11T01:16:30.244Z,1016.72
2018-08-11T01:17:29.179Z,1016.81
2018-08-11T01:18:29.078Z,1016.75
2018-08-11T01:19:28.999Z,1016.83
2018-08-11T01:20:28.915Z,1016.81
2018-08-11T01:21:28.855Z,1016.77
2018-08-11T01:22:28.764Z,1016.75
2018-08-11T01:23:28.705Z,1016.63
2018-08-11T01:24:28.597Z,1016.63
2018-08-11T01:25:28.512Z,1016.61
2018-08-11T01:26:28.466Z,1016.65
2018-08-11T01:27:28.436Z,1016.71
2018-08-11T01:28:28.297Z,1016.73
2018-08-11T01:29:28.204Z,1016.78
2018-08-11T01:30:28.130Z,1016.75
2018-08-11T01:31:28.030Z,1016.77
2018-08-11T01:32:28.078Z,1016.76
2018-08-11T01:33:27.920Z,1016.73
2018-08-11T01:34:27.858Z,1016.80
2018-08-11T01:35:27.726Z,1016.82
2018-08-11T01:36:27.655Z,1016.88
2018-08-11T01:37:27.594Z,1016.83
2018-08-11T01:38:27.521Z,1016.75
2018-08-11T01:39:27.399Z,1016.70
2018-08-11T01:42:09.610Z,1016.67
2018-08-11T01:43:09.575Z,1016.73
2018-08-11T01:44:09.456Z,1016.69
2018-08-11T01:45:09.377Z,1016.74
2018-08-11T01:46:09.304Z,1016.78
2018-08-11T01:48:51.129Z,1016.73
2018-08-11T01:49:51.033Z,1016.72
2018-08-11T01:50:50.972Z,1016.75
2018-08-11T01:51:50.874Z,1016.77
2018-08-11T01:52:50.841Z,1016.77
2018-08-11T01:55:32.610Z,1016.69
2018-08-11T01:56:32.547Z,1016.68
2018-08-11T01:57:32.464Z,1016.65
2018-08-11T01:58:32.418Z,1016.72
2018-08-11T01:59:32.298Z,1016.74
2018-08-11T02:00:32.215Z,1016.74
2018-08-11T02:01:32.151Z,1016.71
2018-08-11T02:02:32.086Z,1016.64
2018-08-11T02:03:31.994Z,1016.50
2018-08-11T02:06:14.159Z,1016.33
2018-08-11T02:08:56.157Z,1016.27
2018-08-11T02:11:38.133Z,1016.39
2018-08-11T02:12:38.070Z,1016.40
2018-08-11T02:13:37.985Z,1016.36
2018-08-11T02:16:20.115Z,1016.38
2018-08-11T02:17:20.047Z,1016.39
2018-08-11T02:18:19.955Z,1016.41
2018-08-11T02:19:21.902Z,1016.43
2018-08-11T02:20:19.792Z,1016.42
2018-08-11T02:23:01.634Z,1016.46
2018-08-11T02:25:43.641Z,1016.47
2018-08-11T02:26:43.589Z,1016.46
2018-08-11T02:27:43.461Z,1016.44
2018-08-11T02:30:25.644Z,1016.48
2018-08-11T02:31:25.539Z,1016.51
2018-08-11T02:32:25.465Z,1016.52
2018-08-11T02:33:25.402Z,1016.58
2018-08-11T02:34:25.389Z,1016.60
2018-08-11T02:35:25.264Z,1016.65
2018-08-11T02:36:25.230Z,1016.69
2018-08-11T02:39:07.203Z,1016.69
2018-08-11T02:40:07.069Z,1016.69
2018-08-11T02:41:06.972Z,1016.66
2018-08-11T02:42:06.896Z,1016.67
2018-08-11T02:43:06.817Z,1016.68
2018-08-11T02:44:06.727Z,1016.71
2018-08-11T02:45:06.689Z,1016.70
2018-08-11T02:46:06.608Z,1016.73
2018-08-11T02:47:06.493Z,1016.69
2018-08-11T02:48:06.423Z,1016.68
2018-08-11T02:49:06.335Z,1016.66
2018-08-11T02:50:06.308Z,1016.72
2018-08-11T02:51:06.319Z,1016.72
2018-08-11T02:53:48.197Z,1016.70
2018-08-11T02:54:48.062Z,1016.75
2018-08-11T02:55:48.013Z,1016.71
2018-08-11T02:56:47.899Z,1016.71
2018-08-11T02:57:47.811Z,1016.74
2018-08-11T02:58:47.738Z,1016.68
2018-08-11T02:59:47.648Z,1016.69
2018-08-11T03:00:48.591Z,1016.69
2018-08-11T03:01:47.489Z,1016.72
2018-08-11T03:04:29.634Z,1016.73
2018-08-11T03:05:29.555Z,1016.73
2018-08-11T03:06:29.497Z,1016.74
2018-08-11T03:09:11.639Z,1016.74
2018-08-11T03:10:11.722Z,1016.77
2018-08-11T03:11:11.522Z,1016.75
2018-08-11T03:12:11.425Z,1016.74
2018-08-11T03:13:11.303Z,1016.72
2018-08-11T03:14:11.346Z,1016.73
2018-08-11T03:15:11.157Z,1016.78
2018-08-11T03:16:11.108Z,1016.72
2018-08-11T03:17:11.048Z,1016.76
2018-08-11T03:18:10.935Z,1016.75
2018-08-11T03:19:10.831Z,1016.75
2018-08-11T03:20:10.776Z,1016.82
2018-08-11T03:21:10.684Z,1016.80
2018-08-11T03:22:10.610Z,1016.79
2018-08-11T03:23:10.538Z,1016.77
2018-08-11T03:24:10.452Z,1016.77
2018-08-11T03:25:10.359Z,1016.83
2018-08-11T03:26:10.290Z,1016.76
2018-08-11T03:27:10.204Z,1016.85
2018-08-11T03:28:10.139Z,1016.85
2018-08-11T03:29:10.034Z,1016.84
2018-08-11T03:30:09.967Z,1016.88
2018-08-11T03:31:09.920Z,1016.86
2018-08-11T03:32:09.832Z,1016.87
2018-08-11T03:33:09.716Z,1016.92
2018-08-11T03:34:09.754Z,1016.92
2018-08-11T03:35:09.582Z,1016.97
2018-08-11T03:36:09.486Z,1016.96
2018-08-11T03:37:09.423Z,1017.02
2018-08-11T03:38:09.349Z,1017.02
2018-08-11T03:39:09.272Z,1016.99
2018-08-11T03:40:09.166Z,1017.00
2018-08-11T03:41:09.088Z,1016.95
2018-08-11T03:42:09.013Z,1016.92
2018-08-11T03:43:08.928Z,1016.96
2018-08-11T03:44:08.874Z,1016.90
2018-08-11T03:45:08.769Z,1016.93
2018-08-11T03:46:08.901Z,1016.95
2018-08-11T03:47:08.611Z,1016.89
2018-08-11T03:48:08.545Z,1016.89
2018-08-11T03:49:08.468Z,1016.92
2018-08-11T03:50:08.397Z,1016.89
2018-08-11T03:51:08.354Z,1016.88
2018-08-11T03:52:08.298Z,1016.92
2018-08-11T03:53:08.162Z,1016.90
2018-08-11T03:54:08.060Z,1016.93
2018-08-11T03:55:07.968Z,1016.90
2018-08-11T03:57:50.171Z,1016.96
2018-08-11T03:58:50.071Z,1016.97
2018-08-11T03:59:49.999Z,1016.92
2018-08-11T04:00:49.924Z,1017.00
2018-08-11T04:01:49.835Z,1017.02
2018-08-11T04:02:49.770Z,1017.00
2018-08-11T04:03:49.685Z,1017.00
2018-08-11T04:04:49.620Z,1017.02
2018-08-11T04:05:49.509Z,1017.02
2018-08-11T04:08:31.666Z,1017.01
2018-08-11T04:09:31.605Z,1016.97
2018-08-11T04:10:31.486Z,1017.03
2018-08-11T04:11:31.410Z,1017.07
2018-08-11T04:12:31.323Z,1017.06
2018-08-11T04:13:31.259Z,1017.10
2018-08-11T04:14:31.183Z,1017.11
2018-08-11T04:17:13.235Z,1017.16
2018-08-11T04:18:13.085Z,1017.16
2018-08-11T04:19:13.009Z,1017.25
2018-08-11T04:20:12.921Z,1017.21
2018-08-11T04:21:12.819Z,1017.21
2018-08-11T04:23:54.645Z,1017.33
2018-08-11T04:24:54.596Z,1017.30
2018-08-11T04:25:54.486Z,1017.37
2018-08-11T04:26:54.419Z,1017.39
2018-08-11T04:27:54.317Z,1017.40
2018-08-11T04:30:36.165Z,1017.44
2018-08-11T04:33:18.167Z,1017.39
2018-08-11T04:36:00.294Z,1017.38
2018-08-11T04:38:42.190Z,1017.43
2018-08-11T04:41:24.171Z,1017.44
2018-08-11T04:42:24.096Z,1017.41
2018-08-11T04:43:24.001Z,1017.42
2018-08-11T04:46:06.184Z,1017.45
2018-08-11T04:47:06.087Z,1017.47
2018-08-11T04:48:06.024Z,1017.47
2018-08-11T04:49:05.924Z,1017.47
2018-08-11T04:50:05.832Z,1017.54
2018-08-11T04:51:05.813Z,1017.49
2018-08-11T04:52:05.668Z,1017.51
2018-08-11T04:53:05.620Z,1017.48
2018-08-11T04:54:05.516Z,1017.52
2018-08-11T04:55:05.449Z,1017.57
2018-08-11T04:56:05.399Z,1017.58
2018-08-11T04:57:06.295Z,1017.58
2018-08-11T04:58:05.196Z,1017.64
2018-08-11T04:59:05.128Z,1017.59
2018-08-11T05:00:05.039Z,1017.62
2018-08-11T05:01:04.988Z,1017.70
2018-08-11T05:02:04.876Z,1017.72
2018-08-11T05:03:04.819Z,1017.67
2018-08-11T05:04:04.716Z,1017.68
2018-08-11T05:05:04.645Z,1017.66
2018-08-11T05:06:04.597Z,1017.68
2018-08-11T05:07:04.543Z,1017.75
2018-08-11T05:08:04.431Z,1017.72
2018-08-11T05:09:04.337Z,1017.80
2018-08-11T05:10:04.250Z,1017.81
2018-08-11T05:12:46.213Z,1017.82
2018-08-11T05:13:46.083Z,1017.85
2018-08-11T05:14:45.998Z,1017.87
2018-08-11T05:15:45.930Z,1017.90
2018-08-11T05:16:45.851Z,1017.94
2018-08-11T05:17:45.789Z,1017.96
2018-08-11T05:18:45.699Z,1017.94
2018-08-11T05:21:27.657Z,1018.01
2018-08-11T05:22:27.630Z,1018.02
2018-08-11T05:23:27.530Z,1017.97
2018-08-11T05:24:27.434Z,1017.99
2018-08-11T05:25:27.348Z,1017.99
2018-08-11T05:28:09.200Z,1017.96
2018-08-11T05:29:09.088Z,1017.98
2018-08-11T05:30:09.123Z,1018.00
2018-08-11T05:31:08.942Z,1017.99
2018-08-11T05:32:08.873Z,1018.02
2018-08-11T05:33:08.826Z,1018.00
2018-08-11T05:34:08.687Z,1018.03
2018-08-11T05:35:08.639Z,1017.99
2018-08-11T05:36:08.527Z,1018.00
2018-08-11T05:37:09.475Z,1018.06
2018-08-11T05:38:08.390Z,1017.99
2018-08-11T05:40:50.667Z,1018.02
2018-08-11T05:41:50.621Z,1018.07
2018-08-11T05:42:50.540Z,1018.07
2018-08-11T05:45:32.709Z,1018.12
2018-08-11T05:46:32.633Z,1018.17
2018-08-11T05:47:32.552Z,1018.14
2018-08-11T05:48:32.461Z,1018.17
2018-08-11T05:49:32.365Z,1018.16
2018-08-11T05:52:14.176Z,1018.19
2018-08-11T05:53:14.128Z,1018.24
2018-08-11T05:54:14.005Z,1018.24
2018-08-11T05:56:56.192Z,1018.26
2018-08-11T05:57:56.137Z,1018.27
2018-08-11T05:58:56.019Z,1018.37
2018-08-11T05:59:55.949Z,1018.40
2018-08-11T06:00:55.872Z,1018.43
2018-08-11T06:01:55.791Z,1018.37
2018-08-11T06:02:55.731Z,1018.34
2018-08-11T06:03:55.698Z,1018.29
2018-08-11T06:04:55.551Z,1018.31
2018-08-11T06:07:37.684Z,1018.19
2018-08-11T06:08:37.633Z,1018.21
2018-08-11T06:09:37.521Z,1018.23
2018-08-11T06:10:37.568Z,1018.22
2018-08-11T06:11:37.366Z,1018.42
2018-08-11T06:14:19.221Z,1018.77
2018-08-11T06:15:19.103Z,1018.80
2018-08-11T06:16:19.029Z,1018.84
2018-08-11T06:17:18.955Z,1018.85
2018-08-11T06:18:18.917Z,1018.82
2018-08-11T06:19:18.777Z,1018.91
2018-08-11T06:20:18.707Z,1018.95
2018-08-11T06:21:18.623Z,1018.97
2018-08-11T06:22:18.549Z,1018.94
2018-08-11T06:23:18.603Z,1018.64
2018-08-11T06:24:18.440Z,1018.64
2018-08-11T06:25:18.324Z,1018.97
2018-08-11T06:26:18.234Z,1018.81
2018-08-11T06:29:00.206Z,1018.91
2018-08-11T06:30:00.123Z,1018.91
2018-08-11T06:31:00.039Z,1019.30
2018-08-11T06:32:00.009Z,1019.24
2018-08-11T06:32:59.906Z,1018.72
2018-08-11T06:33:59.843Z,1018.68
2018-08-11T06:34:59.715Z,1018.78
2018-08-11T06:35:59.659Z,1018.72
2018-08-11T06:36:59.578Z,1018.70
2018-08-11T06:37:59.526Z,1018.79
2018-08-11T06:38:59.409Z,1018.78
2018-08-11T06:39:59.353Z,1018.67
2018-08-11T06:40:59.379Z,1018.69
2018-08-11T06:43:41.184Z,1018.71
2018-08-11T06:44:42.123Z,1019.25
2018-08-11T06:45:41.028Z,1018.71
2018-08-11T06:48:23.200Z,1018.74
2018-08-11T06:49:23.154Z,1018.74
2018-08-11T06:50:23.060Z,1018.77
2018-08-11T06:51:22.960Z,1018.76
2018-08-11T06:52:22.888Z,1018.75
2018-08-11T06:53:22.815Z,1018.77
2018-08-11T06:54:22.719Z,1018.83
2018-08-11T06:55:23.669Z,1019.39
2018-08-11T06:56:22.567Z,1019.47
2018-08-11T06:57:22.510Z,1019.52
2018-08-11T06:58:22.416Z,1019.48
2018-08-11T06:59:22.335Z,1019.48
2018-08-11T07:00:22.262Z,1019.40
2018-08-11T07:03:04.209Z,1018.85
2018-08-11T07:04:04.136Z,1018.88
2018-08-11T07:05:04.042Z,1019.57
2018-08-11T07:06:03.981Z,1019.57
2018-08-11T07:07:03.928Z,1019.58
2018-08-11T07:08:03.829Z,1019.60
2018-08-11T07:09:03.733Z,1019.56
2018-08-11T07:10:03.661Z,1019.57
2018-08-11T07:11:03.597Z,1018.89
2018-08-11T07:12:03.507Z,1018.91
2018-08-11T07:13:03.428Z,1019.53
2018-08-11T07:14:03.354Z,1019.00
2018-08-11T07:15:03.269Z,1019.48
2018-08-11T07:16:04.244Z,1019.31
2018-08-11T07:17:03.125Z,1019.42
2018-08-11T07:18:03.124Z,1019.01
2018-08-11T07:19:03.105Z,1019.40
2018-08-11T07:20:02.897Z,1019.45
2018-08-11T07:21:02.842Z,1019.16
2018-08-11T07:22:02.754Z,1019.17
2018-08-11T07:23:02.672Z,1019.64
2018-08-11T07:24:02.600Z,1019.67
2018-08-11T07:25:02.521Z,1019.69
2018-08-11T07:26:02.462Z,1019.54
2018-08-11T07:27:02.381Z,1019.29
2018-08-11T07:28:02.308Z,1019.53
2018-08-11T07:29:02.221Z,1019.58
2018-08-11T07:30:02.148Z,1019.62
2018-08-11T07:31:02.298Z,1019.57
2018-08-11T07:32:02.030Z,1019.06
2018-08-11T07:33:01.912Z,1019.11
2018-08-11T07:34:01.856Z,1019.61
2018-08-11T07:35:01.789Z,1019.62
2018-08-11T07:36:01.793Z,1019.69
2018-08-11T07:37:01.631Z,1019.63
2018-08-11T07:38:01.560Z,1019.29
2018-08-11T07:39:01.466Z,1019.22
2018-08-11T07:41:43.751Z,1019.56
2018-08-11T07:42:43.743Z,1019.38
2018-08-11T07:43:43.555Z,1019.50
2018-08-11T07:44:43.489Z,1019.49
2018-08-11T07:45:43.411Z,1019.50
2018-08-11T07:46:43.362Z,1019.48
2018-08-11T07:47:43.325Z,1019.43
2018-08-11T07:48:43.190Z,1019.55
2018-08-11T07:49:43.108Z,1019.57
2018-08-11T07:50:43.065Z,1019.58
2018-08-11T07:51:43.088Z,1019.53
2018-08-11T07:52:42.936Z,1019.59
2018-08-11T07:53:42.836Z,1019.59
2018-08-11T07:54:42.765Z,1019.58
2018-08-11T07:55:42.686Z,1019.66
2018-08-11T07:56:42.665Z,1019.75
2018-08-11T07:57:42.570Z,1019.77
2018-08-11T07:58:42.474Z,1019.69
2018-08-11T07:59:42.384Z,1019.36
2018-08-11T08:00:42.321Z,1019.43
2018-08-11T08:01:42.251Z,1019.80
2018-08-11T08:02:42.233Z,1019.83
2018-08-11T08:03:42.107Z,1019.81
2018-08-11T08:04:42.024Z,1019.44
2018-08-11T08:05:41.943Z,1019.84
2018-08-11T08:06:41.907Z,1019.42
2018-08-11T08:07:41.813Z,1019.78
2018-08-11T08:08:42.779Z,1019.40
2018-08-11T08:09:41.664Z,1019.78
2018-08-11T08:12:23.723Z,1019.85
2018-08-11T08:13:23.653Z,1019.81
2018-08-11T08:14:23.597Z,1019.82
2018-08-11T08:15:23.510Z,1019.76
2018-08-11T08:16:23.430Z,1019.94
2018-08-11T08:17:23.369Z,1019.88
2018-08-11T08:18:23.294Z,1019.79
2018-08-11T08:19:23.264Z,1019.48
2018-08-11T08:20:23.144Z,1019.97
2018-08-11T08:21:23.218Z,1019.91
2018-08-11T08:22:23.002Z,1019.97
2018-08-11T08:23:22.941Z,1019.94
2018-08-11T08:24:22.890Z,1019.98
2018-08-11T08:25:22.793Z,1019.97
2018-08-11T08:26:22.868Z,1019.42
2018-08-11T08:27:22.650Z,1019.95
2018-08-11T08:28:22.581Z,1019.93
2018-08-11T08:29:22.546Z,1019.92
2018-08-11T08:30:22.437Z,1019.98
2018-08-11T08:31:22.366Z,1019.90
2018-08-11T08:32:22.315Z,1019.77
2018-08-11T08:33:22.229Z,1019.39
2018-08-11T08:34:22.292Z,1019.44
2018-08-11T08:35:23.103Z,1019.42
2018-08-11T08:36:22.026Z,1019.42
2018-08-11T08:39:04.280Z,1019.94
2018-08-11T08:40:04.189Z,1019.90
2018-08-11T08:41:04.093Z,1019.97
2018-08-11T08:42:04.036Z,1019.94
2018-08-11T08:43:03.942Z,1019.88
2018-08-11T08:44:03.893Z,1019.86
2018-08-11T08:45:03.831Z,1019.85
2018-08-11T08:46:03.763Z,1019.94
2018-08-11T08:47:03.673Z,1019.93
2018-08-11T08:48:03.622Z,1019.69
2018-08-11T08:49:03.525Z,1019.35
2018-08-11T08:50:03.453Z,1019.37
2018-08-11T08:51:03.406Z,1019.92
2018-08-11T08:52:03.299Z,1019.93
2018-08-11T08:53:03.423Z,1019.38
2018-08-11T08:54:03.190Z,1019.36
2018-08-11T08:55:03.109Z,1019.36
2018-08-11T08:56:03.034Z,1019.33
2018-08-11T08:57:02.966Z,1019.33
2018-08-11T08:58:02.926Z,1019.96
2018-08-11T08:59:02.844Z,1019.92
2018-08-11T09:00:02.761Z,1019.94
2018-08-11T09:01:02.684Z,1020.04
2018-08-11T09:02:02.625Z,1020.03
2018-08-11T09:03:02.535Z,1020.05
2018-08-11T09:05:44.766Z,1020.14
2018-08-11T09:06:44.672Z,1019.95
2018-08-11T09:07:44.605Z,1020.09
2018-08-11T09:08:45.568Z,1020.06
2018-08-11T09:09:44.478Z,1020.14
2018-08-11T09:10:44.391Z,1020.08
2018-08-11T09:11:44.408Z,1020.08
2018-08-11T09:12:44.260Z,1020.17
2018-08-11T09:13:44.188Z,1020.14
2018-08-11T09:14:44.134Z,1020.14
2018-08-11T09:15:44.052Z,1019.40
2018-08-11T09:16:45.012Z,1020.20
2018-08-11T09:17:43.891Z,1020.16
2018-08-11T09:18:43.843Z,1020.07
2018-08-11T09:19:43.755Z,1020.10
2018-08-11T09:20:43.722Z,1020.05
2018-08-11T09:21:43.654Z,1020.14
2018-08-11T09:22:43.554Z,1020.15
2018-08-11T09:23:43.478Z,1020.16
2018-08-11T09:24:43.481Z,1020.14
2018-08-11T09:25:43.342Z,1019.34
2018-08-11T09:28:25.258Z,1020.13
2018-08-11T09:29:25.198Z,1020.15
2018-08-11T09:30:25.135Z,1020.20
2018-08-11T09:31:25.069Z,1020.20
2018-08-11T09:32:24.968Z,1020.24
2018-08-11T09:35:07.357Z,1020.18
2018-08-11T09:36:07.188Z,1020.22
2018-08-11T09:37:07.150Z,1019.77
2018-08-11T09:38:07.052Z,1019.49
2018-08-11T09:39:07.020Z,1019.35
2018-08-11T09:40:06.937Z,1019.51
2018-08-11T09:41:06.890Z,1019.44
2018-08-11T09:42:06.910Z,1019.47
2018-08-11T09:43:06.704Z,1019.45
2018-08-11T09:44:06.727Z,1019.50
2018-08-11T09:45:06.579Z,1019.44
2018-08-11T09:46:07.601Z,1019.92
2018-08-11T09:47:06.436Z,1020.12
2018-08-11T09:48:06.389Z,1020.18
2018-08-11T09:49:06.316Z,1020.23
2018-08-11T09:50:06.233Z,1020.24
2018-08-11T09:51:06.175Z,1020.10
2018-08-11T09:53:48.263Z,1019.62
2018-08-11T09:54:48.195Z,1019.46
2018-08-11T09:55:48.163Z,1019.50
2018-08-11T09:56:48.069Z,1019.52
2018-08-11T09:57:47.980Z,1019.60
2018-08-11T09:58:48.016Z,1019.40
2018-08-11T09:59:47.861Z,1019.38
2018-08-11T10:00:47.857Z,1019.38
2018-08-11T10:01:47.809Z,1019.34
2018-08-11T10:02:47.634Z,1019.36
2018-08-11T10:03:47.591Z,1019.38
2018-08-11T10:06:29.783Z,1019.37
2018-08-11T10:07:29.705Z,1019.37
2018-08-11T10:08:29.621Z,1019.38
2018-08-11T10:09:29.567Z,1019.33
2018-08-11T10:10:29.553Z,1019.33
2018-08-11T10:11:29.445Z,1019.35
2018-08-11T10:12:29.326Z,1019.93
2018-08-11T10:15:11.264Z,1019.98
2018-08-11T10:16:11.207Z,1019.99
2018-08-11T10:17:11.139Z,1019.94
2018-08-11T10:18:11.056Z,1019.95
2018-08-11T10:19:10.990Z,1019.89
2018-08-11T10:20:10.925Z,1019.90
2018-08-11T10:21:10.833Z,1019.91
2018-08-11T10:22:11.848Z,1019.96
2018-08-11T10:23:10.681Z,1019.68
2018-08-11T10:24:10.606Z,1019.73
2018-08-11T10:25:10.534Z,1019.98
2018-08-11T10:26:10.471Z,1020.02
2018-08-11T10:27:10.427Z,1019.36
2018-08-11T10:28:10.328Z,1019.40
2018-08-11T10:29:10.258Z,1019.40
2018-08-11T10:30:10.200Z,1019.41
2018-08-11T10:31:10.114Z,1019.36
2018-08-11T10:32:10.065Z,1019.41
2018-08-11T10:33:09.976Z,1019.47
2018-08-11T10:34:09.911Z,1019.77
2018-08-11T10:35:09.852Z,1019.47
2018-08-11T10:36:09.879Z,1019.46
2018-08-11T10:37:09.756Z,1019.45
2018-08-11T10:39:51.815Z,1019.38
2018-08-11T10:40:51.722Z,1019.49
2018-08-11T10:41:51.656Z,1019.44
2018-08-11T10:42:51.602Z,1019.51
2018-08-11T10:43:51.489Z,1019.42
2018-08-11T10:46:33.820Z,1019.90
2018-08-11T10:47:33.744Z,1019.81
2018-08-11T10:48:33.638Z,1019.84
2018-08-11T10:49:33.582Z,1019.67
2018-08-11T10:50:33.497Z,1019.83
2018-08-11T10:51:33.427Z,1019.44
2018-08-11T10:52:33.379Z,1019.29
2018-08-11T10:53:33.335Z,1019.34
2018-08-11T10:54:33.216Z,1019.30
2018-08-11T10:55:33.146Z,1019.25
2018-08-11T10:56:33.067Z,1019.77
2018-08-11T10:57:33.090Z,1019.37
2018-08-11T10:58:32.939Z,1019.45
2018-08-11T10:59:32.864Z,1019.39
2018-08-11T11:00:32.787Z,1019.70
2018-08-11T11:01:32.727Z,1019.83
2018-08-11T11:02:32.678Z,1019.28
2018-08-11T11:03:33.600Z,1019.51
2018-08-11T11:04:32.530Z,1019.79
2018-08-11T11:07:14.801Z,1019.83
2018-08-11T11:08:14.782Z,1019.85
2018-08-11T11:09:14.661Z,1019.35
2018-08-11T11:10:14.589Z,1019.34
2018-08-11T11:11:14.513Z,1019.32
2018-08-11T11:12:14.440Z,1019.47
2018-08-11T11:13:14.548Z,1019.21
2018-08-11T11:14:14.383Z,1019.29
2018-08-11T11:15:14.218Z,1019.22
2018-08-11T11:16:14.164Z,1019.30
2018-08-11T11:17:14.111Z,1019.35
2018-08-11T11:18:14.042Z,1019.59
2018-08-11T11:19:13.944Z,1019.96
2018-08-11T11:20:13.895Z,1019.42
2018-08-11T11:21:13.815Z,1019.45
2018-08-11T11:23:55.818Z,1019.95
2018-08-11T11:24:55.755Z,1019.86
2018-08-11T11:25:55.673Z,1019.86
2018-08-11T11:26:55.590Z,1020.02
2018-08-11T11:27:55.528Z,1019.29
2018-08-11T11:28:56.469Z,1019.27
2018-08-11T11:29:55.361Z,1019.28
2018-08-11T11:30:55.317Z,1019.21
2018-08-11T11:31:55.241Z,1019.23
2018-08-11T11:32:55.171Z,1019.27
2018-08-11T11:33:55.131Z,1019.27
2018-08-11T11:34:55.196Z,1019.89
2018-08-11T11:35:54.965Z,1019.53
2018-08-11T11:36:54.903Z,1019.44
2018-08-11T11:37:54.820Z,1020.31
2018-08-11T11:38:54.724Z,1020.25
2018-08-11T11:39:54.673Z,1020.25
2018-08-11T11:40:54.589Z,1020.30
2018-08-11T11:41:54.516Z,1020.33
2018-08-11T11:42:54.455Z,1020.07
2018-08-11T11:43:54.397Z,1020.01
2018-08-11T11:44:54.534Z,1020.29
2018-08-11T11:45:54.507Z,1020.42
2018-08-11T11:46:54.564Z,1020.16
2018-08-11T11:47:54.729Z,1019.41
2018-08-11T11:48:54.016Z,1020.32
2018-08-11T11:49:53.953Z,1019.36
2018-08-11T11:50:53.898Z,1020.41
2018-08-11T11:51:53.787Z,1020.16
2018-08-11T11:52:53.736Z,1019.98
2018-08-11T11:53:53.653Z,1019.55
2018-08-11T11:54:53.626Z,1019.44
2018-08-11T11:55:53.703Z,1019.42
2018-08-11T11:56:53.454Z,1019.47
2018-08-11T11:57:53.378Z,1019.36
2018-08-11T11:58:53.309Z,1019.40
2018-08-11T11:59:53.292Z,1019.42
2018-08-11T12:00:53.200Z,1019.35
2018-08-11T12:01:53.154Z,1019.27
2018-08-11T12:02:53.028Z,1019.28
2018-08-11T12:03:52.956Z,1019.30
2018-08-11T12:04:52.901Z,1019.30
2018-08-11T12:05:52.900Z,1019.39
2018-08-11T12:06:52.785Z,1019.27
2018-08-11T12:07:52.683Z,1019.39
2018-08-11T12:08:52.617Z,1019.35
2018-08-11T12:09:52.558Z,1019.25
2018-08-11T12:10:52.520Z,1019.34
2018-08-11T12:11:52.404Z,1019.21
2018-08-11T12:12:52.363Z,1019.24
2018-08-11T12:13:52.256Z,1019.26
2018-08-11T12:14:52.199Z,1019.15
2018-08-11T12:15:52.136Z,1019.20
2018-08-11T12:16:52.163Z,1019.20
2018-08-11T12:17:51.972Z,1019.19
2018-08-11T12:18:51.919Z,1019.17
2018-08-11T12:19:51.831Z,1019.27
2018-08-11T12:20:51.767Z,1019.18
2018-08-11T12:21:51.724Z,1019.05
2018-08-11T12:22:51.602Z,1019.06
2018-08-11T12:23:51.529Z,1019.09
2018-08-11T12:24:51.468Z,1019.05
2018-08-11T12:25:51.413Z,1019.03
2018-08-11T12:26:51.349Z,1019.07
2018-08-11T12:27:51.235Z,1019.04
2018-08-11T12:28:51.168Z,1019.08
2018-08-11T12:29:51.096Z,1019.03
2018-08-11T12:32:33.350Z,1019.03
2018-08-11T12:33:33.269Z,1018.99
2018-08-11T12:34:33.174Z,1018.96
2018-08-11T12:35:33.182Z,1019.12
2018-08-11T12:36:33.066Z,1019.01
2018-08-11T12:37:32.978Z,1019.02
2018-08-11T12:38:32.914Z,1019.00
2018-08-11T12:39:32.823Z,1019.00
2018-08-11T12:40:32.744Z,1019.02
2018-08-11T12:41:32.659Z,1019.00
2018-08-11T12:42:32.583Z,1019.14
2018-08-11T12:43:32.535Z,1019.11
2018-08-11T12:44:32.421Z,1019.05
2018-08-11T12:45:32.405Z,1019.09
2018-08-11T12:46:32.298Z,1019.05
2018-08-11T12:47:32.333Z,1019.19
2018-08-11T12:48:32.133Z,1019.19
2018-08-11T12:49:32.183Z,1019.08
2018-08-11T12:50:31.981Z,1019.12
2018-08-11T12:51:31.903Z,1019.05
2018-08-11T12:52:31.852Z,1019.06
2018-08-11T12:53:31.827Z,1019.10
2018-08-11T12:54:31.674Z,1019.11
2018-08-11T12:55:31.615Z,1019.07
2018-08-11T12:56:31.536Z,1018.97
2018-08-11T12:57:32.472Z,1019.00
2018-08-11T12:58:31.417Z,1019.02
2018-08-11T13:01:13.442Z,1018.95
2018-08-11T13:02:13.364Z,1018.84
2018-08-11T13:03:13.208Z,1018.86
2018-08-11T13:04:13.118Z,1018.85
2018-08-11T13:05:13.029Z,1018.81
2018-08-11T13:07:55.382Z,1018.79
2018-08-11T13:08:55.268Z,1018.77
2018-08-11T13:09:55.189Z,1018.77
2018-08-11T13:10:55.132Z,1018.75
2018-08-11T13:11:55.052Z,1018.78
2018-08-11T13:12:55.005Z,1018.78
2018-08-11T13:13:54.883Z,1018.73
2018-08-11T13:14:54.829Z,1018.73
2018-08-11T13:15:54.741Z,1018.73
2018-08-11T13:16:54.683Z,1018.77
2018-08-11T13:17:54.668Z,1018.78
2018-08-11T13:18:54.507Z,1018.78
2018-08-11T13:19:54.436Z,1018.85
2018-08-11T13:20:54.347Z,1018.86
2018-08-11T13:21:54.273Z,1018.83
2018-08-11T13:22:54.223Z,1018.77
2018-08-11T13:23:54.113Z,1018.82
2018-08-11T13:24:54.076Z,1018.75
2018-08-11T13:25:53.976Z,1018.84
2018-08-11T13:26:53.902Z,1018.76
2018-08-11T13:27:53.823Z,1018.79
2018-08-11T13:28:53.774Z,1018.73
2018-08-11T13:29:53.662Z,1018.79
2018-08-11T13:30:53.583Z,1018.77
2018-08-11T13:31:53.523Z,1018.77
2018-08-11T13:32:53.447Z,1018.85
2018-08-11T13:33:53.374Z,1018.80
2018-08-11T13:34:53.278Z,1018.73
2018-08-11T13:35:53.205Z,1018.77
2018-08-11T13:36:53.148Z,1018.73
2018-08-11T13:37:53.061Z,1018.82
2018-08-11T13:38:53.024Z,1018.68
2018-08-11T13:39:52.917Z,1018.78
2018-08-11T13:40:52.853Z,1018.77
2018-08-11T13:41:52.749Z,1018.73